sensor_id;sensor_type;location;lat;lon;timestamp;temperature;humidity
52211;DHT22;38179;52.756;6.906;2023-03-05T00:02:11;2.90;99.90
52211;DHT22;38179;52.756;6.906;2023-03-05T00:04:37;2.90;99.90
52211;DHT22;38179;52.756;6.906;2023-03-05T00:07:03;2.90;99.90
52211;DHT22;38179;52.756;6.906;2023-03-05T00:09:30;2.90;99.90
52211;DHT22;38179;52.756;6.906;2023-03-05T00:11:56;2.90;99.90
52211;DHT22;38179;52.756;6.906;2023-03-05T00:14:22;2.90;99.90
52211;DHT22;38179;52.756;6.906;2023-03-05T00:16:48;2.90;99.90
52211;DHT22;38179;52.756;6.906;2023-03-05T00:19:15;2.80;99.90
52211;DHT22;38179;52.756;6.906;2023-03-05T00:21:42;2.80;99.90
52211;DHT22;38179;52.756;6.906;2023-03-05T00:24:14;2.80;99.90
52211;DHT22;38179;52.756;6.906;2023-03-05T00:26:41;2.80;99.90
52211;DHT22;38179;52.756;6.906;2023-03-05T00:29:08;2.90;99.90
52211;DHT22;38179;52.756;6.906;2023-03-05T00:31:36;2.80;99.90
52211;DHT22;38179;52.756;6.906;2023-03-05T00:34:07;2.90;99.90
52211;DHT22;38179;52.756;6.906;2023-03-05T00:36:38;2.90;99.90
52211;DHT22;38179;52.756;6.906;2023-03-05T00:39:04;2.90;99.90
52211;DHT22;38179;52.756;6.906;2023-03-05T00:41:29;2.90;99.90
52211;DHT22;38179;52.756;6.906;2023-03-05T00:43:55;2.90;99.90
52211;DHT22;38179;52.756;6.906;2023-03-05T00:46:21;2.90;99.90
52211;DHT22;38179;52.756;6.906;2023-03-05T00:48:48;2.90;99.90
52211;DHT22;38179;52.756;6.906;2023-03-05T00:51:13;3.00;99.90
52211;DHT22;38179;52.756;6.906;2023-03-05T00:53:39;3.00;99.90
52211;DHT22;38179;52.756;6.906;2023-03-05T00:56:06;3.00;99.90
52211;DHT22;38179;52.756;6.906;2023-03-05T00:58:32;3.00;99.90
52211;DHT22;38179;52.756;6.906;2023-03-05T01:00:59;3.00;99.90
52211;DHT22;38179;52.756;6.906;2023-03-05T01:03:26;3.00;99.90
52211;DHT22;38179;52.756;6.906;2023-03-05T01:05:52;2.90;99.90
52211;DHT22;38179;52.756;6.906;2023-03-05T01:08:17;2.90;99.90
52211;DHT22;38179;52.756;6.906;2023-03-05T01:10:44;2.90;99.90
52211;DHT22;38179;52.756;6.906;2023-03-05T01:13:10;3.00;99.90
52211;DHT22;38179;52.756;6.906;2023-03-05T01:15:36;2.90;99.90
52211;DHT22;38179;52.756;6.906;2023-03-05T01:18:02;2.90;99.90
52211;DHT22;38179;52.756;6.906;2023-03-05T01:20:28;2.90;99.90
52211;DHT22;38179;52.756;6.906;2023-03-05T01:22:53;2.90;99.90
52211;DHT22;38179;52.756;6.906;2023-03-05T01:25:19;2.90;99.90
52211;DHT22;38179;52.756;6.906;2023-03-05T01:27:46;2.80;99.90
52211;DHT22;38179;52.756;6.906;2023-03-05T01:30:13;2.80;99.90
52211;DHT22;38179;52.756;6.906;2023-03-05T01:32:39;2.80;99.90
52211;DHT22;38179;52.756;6.906;2023-03-05T01:35:06;2.80;99.90
52211;DHT22;38179;52.756;6.906;2023-03-05T01:37:32;2.80;99.90
52211;DHT22;38179;52.756;6.906;2023-03-05T01:39:58;2.80;99.90
52211;DHT22;38179;52.756;6.906;2023-03-05T01:42:24;2.80;99.90
52211;DHT22;38179;52.756;6.906;2023-03-05T01:45:22;2.80;99.90
52211;DHT22;38179;52.756;6.906;2023-03-05T01:47:48;2.80;99.90
52211;DHT22;38179;52.756;6.906;2023-03-05T01:50:20;2.80;99.90
52211;DHT22;38179;52.756;6.906;2023-03-05T01:53:06;2.80;99.90
52211;DHT22;38179;52.756;6.906;2023-03-05T01:55:33;2.80;99.90
52211;DHT22;38179;52.756;6.906;2023-03-05T01:58:09;2.80;99.90
52211;DHT22;38179;52.756;6.906;2023-03-05T02:00:49;2.70;99.90
52211;DHT22;38179;52.756;6.906;2023-03-05T02:03:17;2.70;99.90
52211;DHT22;38179;52.756;6.906;2023-03-05T02:05:44;2.70;99.90
52211;DHT22;38179;52.756;6.906;2023-03-05T02:08:13;2.60;99.90
52211;DHT22;38179;52.756;6.906;2023-03-05T02:10:44;2.60;99.90
52211;DHT22;38179;52.756;6.906;2023-03-05T02:13:16;2.60;99.90
52211;DHT22;38179;52.756;6.906;2023-03-05T02:15:43;2.60;99.90
52211;DHT22;38179;52.756;6.906;2023-03-05T02:18:09;2.60;99.90
52211;DHT22;38179;52.756;6.906;2023-03-05T02:20:50;2.50;99.90
52211;DHT22;38179;52.756;6.906;2023-03-05T02:23:17;2.50;99.90
52211;DHT22;38179;52.756;6.906;2023-03-05T02:25:43;2.50;99.90
52211;DHT22;38179;52.756;6.906;2023-03-05T02:30:48;2.50;99.90
52211;DHT22;38179;52.756;6.906;2023-03-05T02:33:15;2.50;99.90
52211;DHT22;38179;52.756;6.906;2023-03-05T02:35:43;2.50;99.90
52211;DHT22;38179;52.756;6.906;2023-03-05T02:38:12;2.50;99.90
52211;DHT22;38179;52.756;6.906;2023-03-05T02:40:38;2.60;99.90
52211;DHT22;38179;52.756;6.906;2023-03-05T02:43:05;2.50;99.90
52211;DHT22;38179;52.756;6.906;2023-03-05T02:45:30;2.50;99.90
52211;DHT22;38179;52.756;6.906;2023-03-05T02:47:56;2.50;99.90
52211;DHT22;38179;52.756;6.906;2023-03-05T02:50:22;2.50;99.90
52211;DHT22;38179;52.756;6.906;2023-03-05T02:52:49;2.50;99.90
52211;DHT22;38179;52.756;6.906;2023-03-05T02:55:15;2.40;99.90
52211;DHT22;38179;52.756;6.906;2023-03-05T02:57:44;2.40;99.90
52211;DHT22;38179;52.756;6.906;2023-03-05T03:00:10;2.40;99.90
52211;DHT22;38179;52.756;6.906;2023-03-05T03:02:36;2.30;99.90
52211;DHT22;38179;52.756;6.906;2023-03-05T03:05:02;2.30;99.90
52211;DHT22;38179;52.756;6.906;2023-03-05T03:07:28;2.30;99.90
52211;DHT22;38179;52.756;6.906;2023-03-05T03:09:54;2.20;99.90
52211;DHT22;38179;52.756;6.906;2023-03-05T03:12:20;2.20;99.90
52211;DHT22;38179;52.756;6.906;2023-03-05T03:14:46;2.20;99.90
52211;DHT22;38179;52.756;6.906;2023-03-05T03:17:14;2.20;99.90
52211;DHT22;38179;52.756;6.906;2023-03-05T03:19:41;2.20;99.90
52211;DHT22;38179;52.756;6.906;2023-03-05T03:22:08;2.10;99.90
52211;DHT22;38179;52.756;6.906;2023-03-05T03:24:36;2.10;99.90
52211;DHT22;38179;52.756;6.906;2023-03-05T03:27:02;2.10;99.90
52211;DHT22;38179;52.756;6.906;2023-03-05T03:29:29;2.10;99.90
52211;DHT22;38179;52.756;6.906;2023-03-05T03:31:55;2.00;99.90
52211;DHT22;38179;52.756;6.906;2023-03-05T03:34:22;2.10;99.90
52211;DHT22;38179;52.756;6.906;2023-03-05T03:36:48;2.00;99.90
52211;DHT22;38179;52.756;6.906;2023-03-05T03:39:15;2.00;99.90
52211;DHT22;38179;52.756;6.906;2023-03-05T03:41:43;2.00;99.90
52211;DHT22;38179;52.756;6.906;2023-03-05T03:44:09;2.00;99.90
52211;DHT22;38179;52.756;6.906;2023-03-05T03:46:37;2.00;99.90
52211;DHT22;38179;52.756;6.906;2023-03-05T03:49:03;2.00;99.90
52211;DHT22;38179;52.756;6.906;2023-03-05T03:51:29;2.00;99.90
52211;DHT22;38179;52.756;6.906;2023-03-05T03:53:55;2.00;99.90
52211;DHT22;38179;52.756;6.906;2023-03-05T03:56:22;2.00;99.90
52211;DHT22;38179;52.756;6.906;2023-03-05T03:58:51;2.00;99.90
52211;DHT22;38179;52.756;6.906;2023-03-05T04:01:18;2.00;99.90
52211;DHT22;38179;52.756;6.906;2023-03-05T04:03:44;2.00;99.90
52211;DHT22;38179;52.756;6.906;2023-03-05T04:06:11;2.00;99.90
52211;DHT22;38179;52.756;6.906;2023-03-05T04:08:38;2.00;99.90
52211;DHT22;38179;52.756;6.906;2023-03-05T04:11:04;2.10;99.90
52211;DHT22;38179;52.756;6.906;2023-03-05T04:13:30;2.10;99.90
52211;DHT22;38179;52.756;6.906;2023-03-05T04:15:57;2.10;99.90
52211;DHT22;38179;52.756;6.906;2023-03-05T04:18:23;2.10;99.90
52211;DHT22;38179;52.756;6.906;2023-03-05T04:20:49;2.10;99.90
52211;DHT22;38179;52.756;6.906;2023-03-05T04:23:15;2.20;99.90
52211;DHT22;38179;52.756;6.906;2023-03-05T04:25:42;2.20;99.90
52211;DHT22;38179;52.756;6.906;2023-03-05T04:28:07;2.20;99.90
52211;DHT22;38179;52.756;6.906;2023-03-05T04:30:33;2.20;99.90
52211;DHT22;38179;52.756;6.906;2023-03-05T04:32:59;2.20;99.90
52211;DHT22;38179;52.756;6.906;2023-03-05T04:35:25;2.30;99.90
52211;DHT22;38179;52.756;6.906;2023-03-05T04:37:51;2.20;99.90
52211;DHT22;38179;52.756;6.906;2023-03-05T04:40:17;2.20;99.90
52211;DHT22;38179;52.756;6.906;2023-03-05T04:42:44;2.30;99.90
52211;DHT22;38179;52.756;6.906;2023-03-05T04:45:10;2.30;99.90
52211;DHT22;38179;52.756;6.906;2023-03-05T04:47:37;2.20;99.90
52211;DHT22;38179;52.756;6.906;2023-03-05T04:50:04;2.20;99.90
52211;DHT22;38179;52.756;6.906;2023-03-05T04:52:30;2.30;99.90
52211;DHT22;38179;52.756;6.906;2023-03-05T04:54:56;2.30;99.90
52211;DHT22;38179;52.756;6.906;2023-03-05T04:57:22;2.30;99.90
52211;DHT22;38179;52.756;6.906;2023-03-05T04:59:48;2.20;99.90
52211;DHT22;38179;52.756;6.906;2023-03-05T05:02:14;2.30;99.90
52211;DHT22;38179;52.756;6.906;2023-03-05T05:04:40;2.20;99.90
52211;DHT22;38179;52.756;6.906;2023-03-05T05:07:10;2.20;99.90
52211;DHT22;38179;52.756;6.906;2023-03-05T05:09:37;2.30;99.90
52211;DHT22;38179;52.756;6.906;2023-03-05T05:12:04;2.20;99.90
52211;DHT22;38179;52.756;6.906;2023-03-05T05:14:30;2.20;99.90
52211;DHT22;38179;52.756;6.906;2023-03-05T05:16:56;2.20;99.90
52211;DHT22;38179;52.756;6.906;2023-03-05T05:19:22;2.20;99.90
52211;DHT22;38179;52.756;6.906;2023-03-05T05:21:47;2.20;99.90
52211;DHT22;38179;52.756;6.906;2023-03-05T05:24:13;3.30;99.90
52211;DHT22;38179;52.756;6.906;2023-03-05T05:26:39;2.20;99.90
52211;DHT22;38179;52.756;6.906;2023-03-05T05:29:05;2.30;99.90
52211;DHT22;38179;52.756;6.906;2023-03-05T05:31:31;2.30;99.90
52211;DHT22;38179;52.756;6.906;2023-03-05T05:33:57;2.30;99.90
52211;DHT22;38179;52.756;6.906;2023-03-05T05:36:22;2.30;99.90
52211;DHT22;38179;52.756;6.906;2023-03-05T05:38:49;2.30;99.90
52211;DHT22;38179;52.756;6.906;2023-03-05T05:41:17;2.30;99.90
52211;DHT22;38179;52.756;6.906;2023-03-05T05:43:43;2.30;99.90
52211;DHT22;38179;52.756;6.906;2023-03-05T05:46:12;2.30;99.90
52211;DHT22;38179;52.756;6.906;2023-03-05T05:48:38;2.20;99.90
52211;DHT22;38179;52.756;6.906;2023-03-05T05:51:07;2.30;99.90
52211;DHT22;38179;52.756;6.906;2023-03-05T05:53:33;2.20;99.90
52211;DHT22;38179;52.756;6.906;2023-03-05T05:55:59;2.20;99.90
52211;DHT22;38179;52.756;6.906;2023-03-05T05:58:25;2.20;99.90
52211;DHT22;38179;52.756;6.906;2023-03-05T06:00:51;2.20;99.90
52211;DHT22;38179;52.756;6.906;2023-03-05T06:03:17;2.20;99.90
52211;DHT22;38179;52.756;6.906;2023-03-05T06:05:42;2.20;99.90
52211;DHT22;38179;52.756;6.906;2023-03-05T06:08:09;2.20;99.90
52211;DHT22;38179;52.756;6.906;2023-03-05T06:10:35;2.20;99.90
52211;DHT22;38179;52.756;6.906;2023-03-05T06:13:01;2.20;99.90
52211;DHT22;38179;52.756;6.906;2023-03-05T06:15:27;2.20;99.90
52211;DHT22;38179;52.756;6.906;2023-03-05T06:17:53;2.20;99.90
52211;DHT22;38179;52.756;6.906;2023-03-05T06:20:19;2.20;99.90
52211;DHT22;38179;52.756;6.906;2023-03-05T06:22:45;2.10;99.90
52211;DHT22;38179;52.756;6.906;2023-03-05T06:25:11;2.10;99.90
52211;DHT22;38179;52.756;6.906;2023-03-05T06:27:37;2.10;99.90
52211;DHT22;38179;52.756;6.906;2023-03-05T06:30:05;2.10;99.90
52211;DHT22;38179;52.756;6.906;2023-03-05T06:32:33;2.10;99.90
52211;DHT22;38179;52.756;6.906;2023-03-05T06:34:59;2.10;99.90
52211;DHT22;38179;52.756;6.906;2023-03-05T06:37:25;2.20;99.90
52211;DHT22;38179;52.756;6.906;2023-03-05T06:39:51;2.20;99.90
52211;DHT22;38179;52.756;6.906;2023-03-05T06:42:17;2.20;99.90
52211;DHT22;38179;52.756;6.906;2023-03-05T06:44:44;2.20;99.90
52211;DHT22;38179;52.756;6.906;2023-03-05T06:47:10;2.20;99.90
52211;DHT22;38179;52.756;6.906;2023-03-05T06:49:37;2.20;99.90
52211;DHT22;38179;52.756;6.906;2023-03-05T06:52:04;2.20;99.90
52211;DHT22;38179;52.756;6.906;2023-03-05T06:54:31;2.20;99.90
52211;DHT22;38179;52.756;6.906;2023-03-05T06:56:57;2.20;99.90
52211;DHT22;38179;52.756;6.906;2023-03-05T06:59:23;2.30;99.90
52211;DHT22;38179;52.756;6.906;2023-03-05T07:01:49;2.30;99.90
52211;DHT22;38179;52.756;6.906;2023-03-05T07:04:15;2.30;99.90
52211;DHT22;38179;52.756;6.906;2023-03-05T07:06:42;2.30;99.90
52211;DHT22;38179;52.756;6.906;2023-03-05T07:09:11;2.30;99.90
52211;DHT22;38179;52.756;6.906;2023-03-05T07:11:37;2.30;99.90
52211;DHT22;38179;52.756;6.906;2023-03-05T07:14:03;2.40;99.90
52211;DHT22;38179;52.756;6.906;2023-03-05T07:16:31;2.30;99.90
52211;DHT22;38179;52.756;6.906;2023-03-05T07:19:00;2.40;99.90
52211;DHT22;38179;52.756;6.906;2023-03-05T07:21:32;2.40;99.90
52211;DHT22;38179;52.756;6.906;2023-03-05T07:24:00;2.40;99.90
52211;DHT22;38179;52.756;6.906;2023-03-05T07:26:27;2.40;99.90
52211;DHT22;38179;52.756;6.906;2023-03-05T07:28:53;2.40;99.90
52211;DHT22;38179;52.756;6.906;2023-03-05T07:31:22;2.40;99.90
52211;DHT22;38179;52.756;6.906;2023-03-05T07:33:51;2.40;99.90
52211;DHT22;38179;52.756;6.906;2023-03-05T07:36:19;2.50;99.90
52211;DHT22;38179;52.756;6.906;2023-03-05T07:38:45;2.50;99.90
52211;DHT22;38179;52.756;6.906;2023-03-05T07:41:13;2.50;99.90
52211;DHT22;38179;52.756;6.906;2023-03-05T07:43:44;2.50;99.90
52211;DHT22;38179;52.756;6.906;2023-03-05T07:46:13;2.50;99.90
52211;DHT22;38179;52.756;6.906;2023-03-05T07:48:39;2.50;99.90
52211;DHT22;38179;52.756;6.906;2023-03-05T07:51:14;2.60;99.90
52211;DHT22;38179;52.756;6.906;2023-03-05T07:53:44;2.60;99.90
52211;DHT22;38179;52.756;6.906;2023-03-05T07:56:10;2.60;99.90
52211;DHT22;38179;52.756;6.906;2023-03-05T07:58:36;2.60;99.90
52211;DHT22;38179;52.756;6.906;2023-03-05T08:01:02;2.70;99.90
52211;DHT22;38179;52.756;6.906;2023-03-05T08:03:28;2.70;99.90
52211;DHT22;38179;52.756;6.906;2023-03-05T08:05:54;2.80;99.90
52211;DHT22;38179;52.756;6.906;2023-03-05T08:08:20;2.90;99.90
52211;DHT22;38179;52.756;6.906;2023-03-05T08:10:46;2.90;99.90
52211;DHT22;38179;52.756;6.906;2023-03-05T08:13:12;2.90;99.90
52211;DHT22;38179;52.756;6.906;2023-03-05T08:15:38;3.00;99.90
52211;DHT22;38179;52.756;6.906;2023-03-05T08:18:04;2.90;99.90
52211;DHT22;38179;52.756;6.906;2023-03-05T08:20:29;3.00;99.90
52211;DHT22;38179;52.756;6.906;2023-03-05T08:22:55;3.00;99.90
52211;DHT22;38179;52.756;6.906;2023-03-05T08:25:21;3.10;99.90
52211;DHT22;38179;52.756;6.906;2023-03-05T08:27:47;3.10;99.90
52211;DHT22;38179;52.756;6.906;2023-03-05T08:30:16;3.10;99.90
52211;DHT22;38179;52.756;6.906;2023-03-05T08:32:42;3.10;99.90
52211;DHT22;38179;52.756;6.906;2023-03-05T08:35:09;3.20;99.90
52211;DHT22;38179;52.756;6.906;2023-03-05T08:37:35;3.20;99.90
52211;DHT22;38179;52.756;6.906;2023-03-05T08:40:02;3.20;99.90
52211;DHT22;38179;52.756;6.906;2023-03-05T08:42:28;3.20;99.90
52211;DHT22;38179;52.756;6.906;2023-03-05T08:44:53;3.30;99.90
52211;DHT22;38179;52.756;6.906;2023-03-05T08:47:19;3.30;99.90
52211;DHT22;38179;52.756;6.906;2023-03-05T08:49:46;3.30;99.90
52211;DHT22;38179;52.756;6.906;2023-03-05T08:52:12;3.40;99.90
52211;DHT22;38179;52.756;6.906;2023-03-05T08:54:38;3.50;99.90
52211;DHT22;38179;52.756;6.906;2023-03-05T08:57:04;3.50;99.90
52211;DHT22;38179;52.756;6.906;2023-03-05T08:59:31;3.60;99.90
52211;DHT22;38179;52.756;6.906;2023-03-05T09:02:00;3.60;99.90
52211;DHT22;38179;52.756;6.906;2023-03-05T09:04:28;3.60;99.90
52211;DHT22;38179;52.756;6.906;2023-03-05T09:06:55;3.70;99.90
52211;DHT22;38179;52.756;6.906;2023-03-05T09:09:21;3.80;99.90
52211;DHT22;38179;52.756;6.906;2023-03-05T09:11:47;3.80;99.90
52211;DHT22;38179;52.756;6.906;2023-03-05T09:14:14;3.90;99.90
52211;DHT22;38179;52.756;6.906;2023-03-05T09:16:39;3.90;99.90
52211;DHT22;38179;52.756;6.906;2023-03-05T09:19:06;4.00;99.90
52211;DHT22;38179;52.756;6.906;2023-03-05T09:21:37;4.00;99.90
52211;DHT22;38179;52.756;6.906;2023-03-05T09:24:03;4.00;99.90
52211;DHT22;38179;52.756;6.906;2023-03-05T09:26:30;4.10;99.90
52211;DHT22;38179;52.756;6.906;2023-03-05T09:28:56;4.10;99.90
52211;DHT22;38179;52.756;6.906;2023-03-05T09:31:22;4.20;99.90
52211;DHT22;38179;52.756;6.906;2023-03-05T09:33:48;4.20;99.90
52211;DHT22;38179;52.756;6.906;2023-03-05T09:36:22;4.20;99.90
52211;DHT22;38179;52.756;6.906;2023-03-05T09:38:49;4.30;99.90
52211;DHT22;38179;52.756;6.906;2023-03-05T09:45:02;4.50;99.90
52211;DHT22;38179;52.756;6.906;2023-03-05T09:48:18;4.50;99.90
52211;DHT22;38179;52.756;6.906;2023-03-05T09:50:35;4.60;99.90
52211;DHT22;38179;52.756;6.906;2023-03-05T09:53:15;4.70;99.90
52211;DHT22;38179;52.756;6.906;2023-03-05T09:55:45;4.70;99.90
52211;DHT22;38179;52.756;6.906;2023-03-05T09:58:15;4.70;99.90
52211;DHT22;38179;52.756;6.906;2023-03-05T10:00:59;4.80;99.90
52211;DHT22;38179;52.756;6.906;2023-03-05T10:03:57;4.90;99.90
52211;DHT22;38179;52.756;6.906;2023-03-05T10:06:30;4.90;99.90
52211;DHT22;38179;52.756;6.906;2023-03-05T10:11:58;5.00;99.90
52211;DHT22;38179;52.756;6.906;2023-03-05T10:14:36;5.00;99.90
52211;DHT22;38179;52.756;6.906;2023-03-05T10:25:57;5.10;99.90
52211;DHT22;38179;52.756;6.906;2023-03-05T10:34:11;5.30;99.90
52211;DHT22;38179;52.756;6.906;2023-03-05T10:37:11;5.30;99.90
52211;DHT22;38179;52.756;6.906;2023-03-05T10:42:29;5.20;99.90
52211;DHT22;38179;52.756;6.906;2023-03-05T10:45:00;5.30;99.90
52211;DHT22;38179;52.756;6.906;2023-03-05T10:48:01;5.20;99.90
52211;DHT22;38179;52.756;6.906;2023-03-05T10:50:37;5.10;99.90
52211;DHT22;38179;52.756;6.906;2023-03-05T10:53:27;5.20;99.90
52211;DHT22;38179;52.756;6.906;2023-03-05T10:55:53;5.20;99.90
52211;DHT22;38179;52.756;6.906;2023-03-05T10:58:22;5.20;99.90
52211;DHT22;38179;52.756;6.906;2023-03-05T11:03:23;5.20;99.90
52211;DHT22;38179;52.756;6.906;2023-03-05T11:06:00;5.20;99.90
52211;DHT22;38179;52.756;6.906;2023-03-05T11:08:34;5.20;99.90
52211;DHT22;38179;52.756;6.906;2023-03-05T11:16:17;5.00;99.90
52211;DHT22;38179;52.756;6.906;2023-03-05T11:18:43;4.90;99.90
52211;DHT22;38179;52.756;6.906;2023-03-05T11:24:03;4.80;99.90
52211;DHT22;38179;52.756;6.906;2023-03-05T11:26:29;4.70;99.90
52211;DHT22;38179;52.756;6.906;2023-03-05T11:28:59;4.70;99.90
52211;DHT22;38179;52.756;6.906;2023-03-05T11:31:28;4.70;99.90
52211;DHT22;38179;52.756;6.906;2023-03-05T11:34:08;4.70;99.90
52211;DHT22;38179;52.756;6.906;2023-03-05T11:39:23;4.70;99.90
52211;DHT22;38179;52.756;6.906;2023-03-05T11:41:52;4.70;99.90
52211;DHT22;38179;52.756;6.906;2023-03-05T11:49:26;4.90;99.90
52211;DHT22;38179;52.756;6.906;2023-03-05T11:52:10;4.90;99.90
52211;DHT22;38179;52.756;6.906;2023-03-05T11:55:14;4.90;99.90
52211;DHT22;38179;52.756;6.906;2023-03-05T11:58:30;4.70;99.90
52211;DHT22;38179;52.756;6.906;2023-03-05T12:00:33;4.60;99.90
52211;DHT22;38179;52.756;6.906;2023-03-05T12:03:03;4.60;99.90
52211;DHT22;38179;52.756;6.906;2023-03-05T12:05:31;4.40;99.90
52211;DHT22;38179;52.756;6.906;2023-03-05T12:07:58;4.40;99.90
52211;DHT22;38179;52.756;6.906;2023-03-05T12:10:25;4.40;99.90
52211;DHT22;38179;52.756;6.906;2023-03-05T12:21:37;4.50;99.90
52211;DHT22;38179;52.756;6.906;2023-03-05T12:35:14;5.00;99.90
52211;DHT22;38179;52.756;6.906;2023-03-05T12:40:24;5.10;99.90
52211;DHT22;38179;52.756;6.906;2023-03-05T12:43:12;5.20;99.90
52211;DHT22;38179;52.756;6.906;2023-03-05T12:45:39;5.20;99.90
52211;DHT22;38179;52.756;6.906;2023-03-05T12:56:01;5.60;99.90
52211;DHT22;38179;52.756;6.906;2023-03-05T12:59:09;5.70;99.90
52211;DHT22;38179;52.756;6.906;2023-03-05T13:01:45;5.90;99.90
52211;DHT22;38179;52.756;6.906;2023-03-05T13:04:18;5.90;99.90
52211;DHT22;38179;52.756;6.906;2023-03-05T13:07:00;6.00;99.90
52211;DHT22;38179;52.756;6.906;2023-03-05T13:09:31;6.00;99.90
52211;DHT22;38179;52.756;6.906;2023-03-05T13:12:02;6.00;99.90
52211;DHT22;38179;52.756;6.906;2023-03-05T13:14:41;6.10;99.90
52211;DHT22;38179;52.756;6.906;2023-03-05T13:17:28;6.20;99.90
52211;DHT22;38179;52.756;6.906;2023-03-05T13:19:55;6.40;99.90
52211;DHT22;38179;52.756;6.906;2023-03-05T13:22:21;6.40;99.90
52211;DHT22;38179;52.756;6.906;2023-03-05T13:25:16;6.50;99.90
52211;DHT22;38179;52.756;6.906;2023-03-05T13:27:45;6.60;99.90
52211;DHT22;38179;52.756;6.906;2023-03-05T13:30:31;6.60;99.90
52211;DHT22;38179;52.756;6.906;2023-03-05T13:33:00;6.60;99.90
52211;DHT22;38179;52.756;6.906;2023-03-05T13:35:31;6.50;99.90
52211;DHT22;38179;52.756;6.906;2023-03-05T13:37:57;6.50;99.90
52211;DHT22;38179;52.756;6.906;2023-03-05T13:40:27;6.50;99.90
52211;DHT22;38179;52.756;6.906;2023-03-05T13:42:54;6.50;99.90
52211;DHT22;38179;52.756;6.906;2023-03-05T13:45:27;6.50;99.90
52211;DHT22;38179;52.756;6.906;2023-03-05T13:48:01;6.20;99.90
52211;DHT22;38179;52.756;6.906;2023-03-05T13:50:29;5.80;99.90
52211;DHT22;38179;52.756;6.906;2023-03-05T13:53:25;5.50;99.90
52211;DHT22;38179;52.756;6.906;2023-03-05T13:55:55;5.20;99.90
52211;DHT22;38179;52.756;6.906;2023-03-05T14:01:34;4.90;99.90
52211;DHT22;38179;52.756;6.906;2023-03-05T14:04:24;4.90;99.90
52211;DHT22;38179;52.756;6.906;2023-03-05T14:07:05;4.80;99.90
52211;DHT22;38179;52.756;6.906;2023-03-05T14:14:46;4.90;99.90
52211;DHT22;38179;52.756;6.906;2023-03-05T14:20:26;5.00;99.90
52211;DHT22;38179;52.756;6.906;2023-03-05T14:23:00;5.00;99.90
52211;DHT22;38179;52.756;6.906;2023-03-05T14:28:01;5.10;99.90
52211;DHT22;38179;52.756;6.906;2023-03-05T14:30:27;5.10;99.90
52211;DHT22;38179;52.756;6.906;2023-03-05T14:32:56;5.10;99.90
52211;DHT22;38179;52.756;6.906;2023-03-05T14:35:25;5.10;99.90
52211;DHT22;38179;52.756;6.906;2023-03-05T14:37:53;5.20;99.90
52211;DHT22;38179;52.756;6.906;2023-03-05T14:40:32;5.20;99.90
52211;DHT22;38179;52.756;6.906;2023-03-05T14:43:05;5.20;99.90
52211;DHT22;38179;52.756;6.906;2023-03-05T14:45:39;5.30;99.90
52211;DHT22;38179;52.756;6.906;2023-03-05T14:48:06;5.30;99.90
52211;DHT22;38179;52.756;6.906;2023-03-05T14:50:40;5.30;99.90
52211;DHT22;38179;52.756;6.906;2023-03-05T14:53:12;5.40;99.90
52211;DHT22;38179;52.756;6.906;2023-03-05T14:55:39;5.40;99.90
52211;DHT22;38179;52.756;6.906;2023-03-05T14:58:16;5.40;99.90
52211;DHT22;38179;52.756;6.906;2023-03-05T15:00:43;5.30;99.90
52211;DHT22;38179;52.756;6.906;2023-03-05T15:03:14;5.30;99.90
52211;DHT22;38179;52.756;6.906;2023-03-05T15:05:41;5.30;99.90
52211;DHT22;38179;52.756;6.906;2023-03-05T15:08:16;5.20;99.90
52211;DHT22;38179;52.756;6.906;2023-03-05T15:10:42;5.20;99.90
52211;DHT22;38179;52.756;6.906;2023-03-05T15:13:08;5.20;99.90
52211;DHT22;38179;52.756;6.906;2023-03-05T15:15:34;5.20;99.90
52211;DHT22;38179;52.756;6.906;2023-03-05T15:18:00;5.20;99.90
52211;DHT22;38179;52.756;6.906;2023-03-05T15:20:27;5.10;99.90
52211;DHT22;38179;52.756;6.906;2023-03-05T15:22:54;5.10;99.90
52211;DHT22;38179;52.756;6.906;2023-03-05T15:25:22;5.10;99.90
52211;DHT22;38179;52.756;6.906;2023-03-05T15:27:49;5.10;99.90
52211;DHT22;38179;52.756;6.906;2023-03-05T15:32:51;5.10;99.90
52211;DHT22;38179;52.756;6.906;2023-03-05T15:35:17;5.20;99.90
52211;DHT22;38179;52.756;6.906;2023-03-05T15:37:43;5.20;99.90
52211;DHT22;38179;52.756;6.906;2023-03-05T15:40:10;5.20;99.90
52211;DHT22;38179;52.756;6.906;2023-03-05T15:42:36;5.20;99.90
52211;DHT22;38179;52.756;6.906;2023-03-05T15:45:02;5.20;99.90
52211;DHT22;38179;52.756;6.906;2023-03-05T15:47:31;5.30;99.90
52211;DHT22;38179;52.756;6.906;2023-03-05T15:49:57;5.30;99.90
52211;DHT22;38179;52.756;6.906;2023-03-05T15:52:23;5.30;99.90
52211;DHT22;38179;52.756;6.906;2023-03-05T15:54:49;5.30;99.90
52211;DHT22;38179;52.756;6.906;2023-03-05T15:57:15;5.20;99.90
52211;DHT22;38179;52.756;6.906;2023-03-05T15:59:43;5.30;99.90
52211;DHT22;38179;52.756;6.906;2023-03-05T16:02:18;5.30;99.90
52211;DHT22;38179;52.756;6.906;2023-03-05T16:04:56;5.30;99.90
52211;DHT22;38179;52.756;6.906;2023-03-05T16:07:29;5.30;99.90
52211;DHT22;38179;52.756;6.906;2023-03-05T16:10:14;5.30;99.90
52211;DHT22;38179;52.756;6.906;2023-03-05T16:12:43;5.20;99.90
52211;DHT22;38179;52.756;6.906;2023-03-05T16:15:14;5.20;99.90
52211;DHT22;38179;52.756;6.906;2023-03-05T16:21:46;5.10;99.90
52211;DHT22;38179;52.756;6.906;2023-03-05T16:24:22;5.10;99.90
52211;DHT22;38179;52.756;6.906;2023-03-05T16:26:48;5.10;99.90
52211;DHT22;38179;52.756;6.906;2023-03-05T16:29:14;5.00;99.90
52211;DHT22;38179;52.756;6.906;2023-03-05T16:32:16;5.00;99.90
52211;DHT22;38179;52.756;6.906;2023-03-05T16:34:43;5.00;99.90
52211;DHT22;38179;52.756;6.906;2023-03-05T16:37:09;4.90;99.90
52211;DHT22;38179;52.756;6.906;2023-03-05T16:39:36;4.90;99.90
52211;DHT22;38179;52.756;6.906;2023-03-05T16:42:02;4.90;99.90
52211;DHT22;38179;52.756;6.906;2023-03-05T16:44:58;4.80;99.90
52211;DHT22;38179;52.756;6.906;2023-03-05T16:47:24;4.80;99.90
52211;DHT22;38179;52.756;6.906;2023-03-05T16:49:53;4.80;99.90
52211;DHT22;38179;52.756;6.906;2023-03-05T16:52:19;4.80;99.90
52211;DHT22;38179;52.756;6.906;2023-03-05T16:54:45;4.70;99.90
52211;DHT22;38179;52.756;6.906;2023-03-05T16:57:11;4.70;99.90
52211;DHT22;38179;52.756;6.906;2023-03-05T16:59:54;4.70;99.90
52211;DHT22;38179;52.756;6.906;2023-03-05T17:02:21;4.60;99.90
52211;DHT22;38179;52.756;6.906;2023-03-05T17:05:21;4.60;99.90
52211;DHT22;38179;52.756;6.906;2023-03-05T17:07:47;4.60;99.90
52211;DHT22;38179;52.756;6.906;2023-03-05T17:10:13;4.50;99.90
52211;DHT22;38179;52.756;6.906;2023-03-05T17:12:39;4.50;99.90
52211;DHT22;38179;52.756;6.906;2023-03-05T17:15:06;4.50;99.90
52211;DHT22;38179;52.756;6.906;2023-03-05T17:17:32;4.50;99.90
52211;DHT22;38179;52.756;6.906;2023-03-05T17:19:58;4.40;99.90
52211;DHT22;38179;52.756;6.906;2023-03-05T17:22:24;4.40;99.90
52211;DHT22;38179;52.756;6.906;2023-03-05T17:24:50;4.40;99.90
52211;DHT22;38179;52.756;6.906;2023-03-05T17:27:16;4.30;99.90
52211;DHT22;38179;52.756;6.906;2023-03-05T17:29:47;4.30;99.90
52211;DHT22;38179;52.756;6.906;2023-03-05T17:32:13;4.30;99.90
52211;DHT22;38179;52.756;6.906;2023-03-05T17:34:39;4.20;99.90